createdAt,value
2018-01-04T00:02:08.469Z,2.53
2018-01-04T00:04:36.757Z,2.17
2018-01-04T00:07:05.633Z,2.80
2018-01-04T00:09:33.595Z,2.37
2018-01-04T00:12:01.926Z,2.33
2018-01-04T00:14:30.226Z,2.30
2018-01-04T00:16:58.513Z,2.43
2018-01-04T00:19:26.788Z,2.70
2018-01-04T00:21:55.155Z,2.70
2018-01-04T00:24:23.492Z,2.37
2018-01-04T00:26:52.431Z,2.10
2018-01-04T00:29:20.056Z,2.00
2018-01-04T00:31:50.094Z,2.20
2018-01-04T00:34:18.004Z,2.00
2018-01-04T00:36:46.304Z,2.20
2018-01-04T00:39:13.816Z,1.90
2018-01-04T00:41:41.753Z,1.90
2018-01-04T00:44:10.071Z,1.77
2018-01-04T00:46:38.375Z,1.83
2018-01-04T00:49:06.674Z,1.93
2018-01-04T00:51:34.192Z,2.03
2018-01-04T00:54:02.836Z,2.30
2018-01-04T00:56:30.374Z,2.37
2018-01-04T00:58:58.765Z,2.93
2018-01-04T01:01:27.808Z,1.53
2018-01-04T01:03:55.716Z,2.63
2018-01-04T01:06:24.748Z,2.03
2018-01-04T01:08:52.337Z,1.87
2018-01-04T01:11:20.634Z,1.63
2018-01-04T01:13:48.916Z,2.00
2018-01-04T01:16:17.209Z,1.60
2018-01-04T01:18:45.488Z,1.70
2018-01-04T01:21:14.131Z,2.00
2018-01-04T01:23:42.465Z,2.27
2018-01-04T01:26:10.738Z,2.00
2018-01-04T01:28:39.041Z,1.97
2018-01-04T01:31:07.324Z,1.97
2018-01-04T01:33:35.619Z,2.20
2018-01-04T01:36:03.902Z,1.70
2018-01-04T01:38:32.557Z,2.00
2018-01-04T01:41:00.830Z,1.93
2018-01-04T01:43:29.125Z,2.50
2018-01-04T01:45:57.411Z,2.60
2018-01-04T01:48:25.701Z,1.97
2018-01-04T01:50:53.977Z,2.00
2018-01-04T01:53:22.269Z,2.10
2018-01-04T01:55:50.717Z,2.93
2018-01-04T01:58:19.005Z,1.73
2018-01-04T02:00:46.510Z,2.67
2018-01-04T02:03:14.694Z,2.47
2018-01-04T02:05:42.617Z,2.00
2018-01-04T02:08:11.344Z,3.13
2018-01-04T02:10:39.623Z,2.80
2018-01-04T02:13:08.661Z,2.23
2018-01-04T02:15:36.574Z,2.30
2018-01-04T02:18:16.285Z,2.30
2018-01-04T02:20:55.405Z,2.27
2018-01-04T02:23:36.066Z,2.50
2018-01-04T02:26:04.356Z,3.10
2018-01-04T02:28:44.477Z,2.30
2018-01-04T02:31:23.745Z,2.30
2018-01-04T02:34:03.058Z,2.30
2018-01-04T02:36:43.397Z,2.50
2018-01-04T02:39:23.556Z,1.93
2018-01-04T02:42:02.852Z,2.50
2018-01-04T02:44:43.660Z,2.47
2018-01-04T02:47:11.351Z,2.97
2018-01-04T02:49:39.654Z,2.73
2018-01-04T02:52:07.933Z,2.00
2018-01-04T02:54:36.282Z,2.40
2018-01-04T02:57:03.756Z,2.30
2018-01-04T02:59:31.682Z,2.60
2018-01-04T03:01:59.980Z,3.23
2018-01-04T03:04:28.293Z,2.40
2018-01-04T03:06:56.605Z,2.70
2018-01-04T03:09:24.145Z,2.43
2018-01-04T03:11:52.063Z,2.53
2018-01-04T03:14:20.377Z,2.70
2018-01-04T03:16:48.669Z,2.33
2018-01-04T03:19:17.226Z,2.73
2018-01-04T03:21:52.136Z,2.30
2018-01-04T03:24:20.434Z,2.30
2018-01-04T03:26:53.499Z,3.30
2018-01-04T03:29:27.364Z,2.90
2018-01-04T03:32:01.009Z,2.73
2018-01-04T03:34:35.646Z,2.47
2018-01-04T03:40:14.489Z,2.80
2018-01-04T03:42:48.361Z,2.83
2018-01-04T03:45:22.858Z,2.30
2018-01-04T03:48:12.556Z,3.03
2018-01-04T03:50:45.641Z,2.27
2018-01-04T03:53:19.124Z,2.80
2018-01-04T03:55:53.076Z,3.00
2018-01-04T03:58:21.355Z,2.40
2018-01-04T04:01:04.559Z,2.57
2018-01-04T04:03:32.071Z,2.40
2018-01-04T04:06:06.769Z,2.60
2018-01-04T04:08:39.905Z,2.40
2018-01-04T04:11:08.204Z,1.70
2018-01-04T04:13:36.486Z,1.90
2018-01-04T04:16:04.788Z,1.90
2018-01-04T04:18:33.065Z,1.77
2018-01-04T04:21:00.612Z,1.90
2018-01-04T04:23:28.522Z,1.40
2018-01-04T04:25:56.820Z,1.73
2018-01-04T04:28:25.098Z,1.43
2018-01-04T04:30:52.624Z,1.40
2018-01-04T04:33:20.556Z,1.00
2018-01-04T04:35:49.766Z,1.27
2018-01-04T04:38:17.293Z,1.03
2018-01-04T04:40:45.611Z,1.10
2018-01-04T04:43:13.890Z,0.97
2018-01-04T04:45:42.200Z,1.10
2018-01-04T04:48:10.467Z,0.97
2018-01-04T04:50:37.992Z,1.33
2018-01-04T04:53:05.896Z,1.00
2018-01-04T04:55:34.196Z,1.10
2018-01-04T04:58:02.608Z,0.87
2018-01-04T05:00:30.904Z,1.00
2018-01-04T05:02:59.177Z,0.70
2018-01-04T05:05:27.452Z,1.30
2018-01-04T05:07:57.757Z,0.93
2018-01-04T05:10:25.667Z,1.00
2018-01-04T05:12:53.961Z,1.10
2018-01-04T05:15:22.237Z,0.90
2018-01-04T05:17:50.582Z,0.77
2018-01-04T05:20:18.857Z,1.10
2018-01-04T05:22:46.428Z,0.90
2018-01-04T05:25:14.326Z,0.80
2018-01-04T05:27:42.625Z,1.00
2018-01-04T05:30:10.991Z,1.00
2018-01-04T05:32:39.253Z,1.30
2018-01-04T05:35:07.524Z,0.80
2018-01-04T05:37:35.834Z,1.23
2018-01-04T05:40:03.337Z,1.07
2018-01-04T05:42:31.268Z,0.97
2018-01-04T05:44:59.548Z,1.00
2018-01-04T05:47:27.894Z,1.20
2018-01-04T05:49:55.810Z,1.13
2018-01-04T05:52:23.328Z,0.90
2018-01-04T05:54:51.606Z,0.77
2018-01-04T05:57:19.888Z,0.90
2018-01-04T05:59:47.389Z,1.00
2018-01-04T06:02:16.058Z,0.77
2018-01-04T06:04:43.569Z,0.80
2018-01-04T06:07:11.864Z,0.80
2018-01-04T06:09:39.430Z,0.90
2018-01-04T06:12:07.356Z,0.70
2018-01-04T06:14:35.629Z,0.90
2018-01-04T06:17:03.935Z,0.90
2018-01-04T06:19:31.449Z,0.87
2018-01-04T06:21:59.381Z,0.80
2018-01-04T06:24:27.652Z,0.83
2018-01-04T06:26:55.992Z,0.93
2018-01-04T06:29:24.293Z,0.70
2018-01-04T06:31:52.576Z,0.80
2018-01-04T06:34:21.328Z,0.90
2018-01-04T06:36:49.609Z,0.80
2018-01-04T06:39:17.906Z,0.73
2018-01-04T06:41:46.178Z,1.00
2018-01-04T06:44:14.504Z,0.83
2018-01-04T06:46:42.788Z,0.90
2018-01-04T06:49:11.087Z,1.03
2018-01-04T06:51:39.357Z,0.70
2018-01-04T06:54:06.892Z,0.80
2018-01-04T06:56:34.803Z,0.80
2018-01-04T06:59:03.100Z,0.70
2018-01-04T07:01:31.385Z,1.07
2018-01-04T07:03:59.685Z,0.97
2018-01-04T07:06:27.199Z,0.73
2018-01-04T07:08:55.923Z,0.90
2018-01-04T07:11:23.821Z,0.80
2018-01-04T07:13:51.738Z,0.70
2018-01-04T07:16:20.016Z,0.90
2018-01-04T07:18:47.536Z,0.80
2018-01-04T07:21:15.439Z,0.90
2018-01-04T07:23:43.732Z,1.10
2018-01-04T07:26:12.807Z,1.00
2018-01-04T07:28:41.750Z,0.93
2018-01-04T07:31:09.255Z,1.47
2018-01-04T07:33:37.172Z,0.93
2018-01-04T07:36:05.451Z,1.50
2018-01-04T07:38:33.745Z,1.20
2018-01-04T07:41:01.253Z,1.13
2018-01-04T07:43:29.553Z,1.10
2018-01-04T07:45:57.460Z,1.10
2018-01-04T07:48:25.753Z,1.00
2018-01-04T07:50:53.299Z,0.80
2018-01-04T07:53:21.883Z,1.40
2018-01-04T07:55:49.392Z,0.90
2018-01-04T07:58:17.673Z,1.10
2018-01-04T08:00:45.197Z,0.97
2018-01-04T08:03:13.479Z,0.90
2018-01-04T08:05:41.410Z,1.00
2018-01-04T08:08:08.927Z,0.87
2018-01-04T08:10:36.854Z,0.80
2018-01-04T08:13:05.136Z,0.97
2018-01-04T08:15:33.425Z,1.00
2018-01-04T08:18:02.548Z,1.23
2018-01-04T08:20:30.964Z,1.00
2018-01-04T08:22:58.917Z,0.90
2018-01-04T08:25:26.817Z,1.17
2018-01-04T08:27:55.098Z,0.80
2018-01-04T08:30:22.635Z,0.97
2018-01-04T08:32:50.583Z,0.90
2018-01-04T08:35:18.901Z,0.90
2018-01-04T08:37:48.438Z,0.80
2018-01-04T08:40:16.729Z,0.70
2018-01-04T08:42:45.011Z,0.90
2018-01-04T08:45:13.461Z,0.90
2018-01-04T08:47:41.782Z,0.70
2018-01-04T08:50:10.817Z,0.70
2018-01-04T08:52:38.732Z,0.83
2018-01-04T08:55:07.029Z,0.80
2018-01-04T08:57:35.363Z,0.90
2018-01-04T09:00:03.664Z,1.10
2018-01-04T09:02:31.944Z,0.80
2018-01-04T09:05:00.236Z,0.73
2018-01-04T09:07:28.521Z,1.00
2018-01-04T09:09:56.816Z,1.00
2018-01-04T09:12:25.092Z,5.63
2018-01-04T09:14:54.548Z,1.60
2018-01-04T09:17:22.063Z,1.13
2018-01-04T09:19:50.340Z,1.00
2018-01-04T09:22:18.645Z,0.97
2018-01-04T09:24:46.918Z,1.00
2018-01-04T09:27:15.206Z,1.00
2018-01-04T09:29:43.121Z,1.10
2018-01-04T09:32:10.653Z,0.80
2018-01-04T09:34:38.929Z,1.00
2018-01-04T09:37:06.537Z,1.03
2018-01-04T09:39:34.433Z,1.03
2018-01-04T09:42:02.723Z,1.07
2018-01-04T09:44:31.004Z,0.90
2018-01-04T09:46:59.308Z,0.90
2018-01-04T09:49:27.599Z,1.00
2018-01-04T11:13:53.741Z,2.30
2018-01-04T11:16:22.016Z,5.20
2018-01-04T11:18:50.333Z,4.77
2018-01-04T11:21:18.621Z,1.90
2018-01-04T11:23:46.916Z,1.50
2018-01-04T11:26:15.200Z,11.73
2018-01-04T11:28:43.490Z,4.13
2018-01-04T11:31:11.004Z,2.90
2018-01-04T11:33:38.929Z,2.90
2018-01-04T11:36:08.002Z,2.33
2018-01-04T11:38:36.301Z,2.30
2018-01-04T11:41:03.882Z,2.23
2018-01-04T11:43:32.178Z,1.90
2018-01-04T11:46:00.774Z,2.20
2018-01-04T11:48:29.752Z,2.30
2018-01-04T11:50:57.244Z,2.93
2018-01-04T11:53:25.588Z,2.43
2018-01-04T11:55:53.854Z,3.40
2018-01-04T11:58:22.294Z,3.23
2018-01-04T12:00:50.700Z,2.60
2018-01-04T12:03:19.041Z,3.40
2018-01-04T12:05:48.193Z,3.60
2018-01-04T12:08:15.725Z,3.00
2018-01-04T12:10:44.008Z,3.10
2018-01-04T12:13:12.562Z,3.30
2018-01-04T12:15:40.830Z,3.83
2018-01-04T12:18:09.125Z,3.53
2018-01-04T12:20:37.418Z,3.77
2018-01-04T12:23:06.353Z,2.73
2018-01-04T12:25:33.890Z,3.10
2018-01-04T12:28:02.180Z,3.90
2018-01-04T12:30:29.766Z,3.90
2018-01-04T12:32:57.756Z,3.70
2018-01-04T12:35:26.066Z,3.03
2018-01-04T12:37:54.365Z,3.27
2018-01-04T12:40:22.667Z,3.00
2018-01-04T12:42:51.505Z,3.03
2018-01-04T12:45:19.425Z,2.60
2018-01-04T12:47:47.704Z,3.70
2018-01-04T12:50:16.536Z,2.60
2018-01-04T12:52:44.442Z,2.73
2018-01-04T12:55:12.735Z,2.97
2018-01-04T12:57:41.118Z,2.43
2018-01-04T13:00:09.410Z,2.77
2018-01-04T13:02:37.694Z,3.07
2018-01-04T13:05:05.225Z,3.30
2018-01-04T13:07:33.136Z,3.00
2018-01-04T13:10:02.272Z,2.83
2018-01-04T13:12:29.848Z,3.83
2018-01-04T13:14:58.161Z,3.50
2018-01-04T13:17:26.437Z,3.40
2018-01-04T13:19:54.875Z,3.83
2018-01-04T13:22:23.162Z,3.50
2018-01-04T13:24:51.461Z,2.83
2018-01-04T13:27:19.741Z,2.90
2018-01-04T13:29:48.294Z,3.10
2018-01-04T13:32:16.568Z,2.97
2018-01-04T13:34:44.857Z,3.33
2018-01-04T13:37:14.060Z,3.60
2018-01-04T13:39:41.573Z,3.20
2018-01-04T13:42:09.865Z,3.97
2018-01-04T13:44:38.262Z,3.07
2018-01-04T13:47:06.561Z,3.43
2018-01-04T13:49:34.874Z,2.77
2018-01-04T13:52:03.178Z,3.53
2018-01-04T13:54:31.444Z,3.70
2018-01-04T13:57:00.274Z,3.73
2018-01-04T13:59:28.171Z,4.30
2018-01-04T14:01:55.706Z,5.57
2018-01-04T14:04:23.620Z,5.30
2018-01-04T14:06:51.916Z,4.37
2018-01-04T14:09:20.209Z,4.73
2018-01-04T14:11:48.513Z,4.33
2018-01-04T14:14:16.800Z,4.00
2018-01-04T14:16:45.104Z,3.93
2018-01-04T14:19:13.426Z,3.50
2018-01-04T14:21:40.962Z,3.47
2018-01-04T14:24:08.874Z,4.13
2018-01-04T14:26:37.172Z,5.37
2018-01-04T14:29:04.671Z,3.20
2018-01-04T14:31:32.597Z,3.63
2018-01-04T14:34:01.026Z,4.77
2018-01-04T14:36:29.325Z,4.30
2018-01-04T14:38:57.606Z,3.60
2018-01-04T14:41:25.909Z,3.47
2018-01-04T14:43:54.204Z,3.73
2018-01-04T14:46:22.634Z,3.63
2018-01-04T14:48:50.924Z,4.50
2018-01-04T14:51:19.346Z,3.17
2018-01-04T14:53:47.622Z,2.70
2018-01-04T14:56:15.921Z,3.00
2018-01-04T14:58:44.192Z,3.30
2018-01-04T15:01:11.704Z,4.73
2018-01-04T15:03:39.776Z,9.67
2018-01-04T15:06:08.049Z,5.90
2018-01-04T15:08:36.353Z,4.20
2018-01-04T15:11:05.465Z,4.27
2018-01-04T15:13:34.684Z,4.20
2018-01-04T15:16:03.905Z,4.20
2018-01-04T15:18:33.084Z,3.50
2018-01-04T15:21:02.287Z,3.70
2018-01-04T15:23:31.452Z,4.47
2018-01-04T15:26:00.617Z,3.60
2018-01-04T15:28:29.810Z,3.10
2018-01-04T15:30:59.006Z,3.10
2018-01-04T15:33:28.160Z,3.73
2018-01-04T15:35:57.320Z,3.80
2018-01-04T15:38:26.526Z,2.83
2018-01-04T15:40:55.894Z,3.10
2018-01-04T15:43:25.072Z,3.10
2018-01-04T15:45:54.234Z,2.90
2018-01-04T15:48:23.635Z,2.70
2018-01-04T15:50:52.796Z,3.43
2018-01-04T15:53:21.971Z,2.90
2018-01-04T15:55:51.137Z,2.17
2018-01-04T15:58:20.311Z,2.07
2018-01-04T16:00:49.464Z,1.93
2018-01-04T16:03:18.645Z,1.90
2018-01-04T16:05:47.807Z,1.93
2018-01-04T16:08:17.078Z,2.50
2018-01-04T16:10:46.236Z,2.60
2018-01-04T16:13:15.308Z,2.37
2018-01-04T16:15:45.215Z,2.80
2018-01-04T16:18:14.339Z,2.30
2018-01-04T16:20:43.459Z,2.10
2018-01-04T16:23:12.891Z,2.40
2018-01-04T16:25:42.057Z,2.90
2018-01-04T16:28:11.216Z,2.20
2018-01-04T16:30:40.320Z,1.83
2018-01-04T16:33:09.528Z,1.90
2018-01-04T16:35:38.636Z,2.13
2018-01-04T16:38:07.890Z,1.70
2018-01-04T16:40:37.004Z,1.60
2018-01-04T16:43:06.245Z,1.23
2018-01-04T16:45:36.306Z,1.80
2018-01-04T16:48:05.368Z,1.40
2018-01-04T16:50:34.548Z,1.50
2018-01-04T16:53:03.721Z,1.40
2018-01-04T16:55:32.909Z,1.30
2018-01-04T16:58:02.111Z,1.00
2018-01-04T17:00:32.069Z,1.33
2018-01-04T17:03:01.234Z,1.47
2018-01-04T17:05:30.415Z,0.83
2018-01-04T17:07:59.615Z,1.13
2018-01-04T17:10:29.393Z,1.30
2018-01-04T17:12:58.589Z,1.00
2018-01-04T17:15:28.468Z,1.57
2018-01-04T17:17:57.624Z,1.33
2018-01-04T17:20:26.850Z,1.50
2018-01-04T17:22:56.063Z,2.00
2018-01-04T17:25:26.561Z,1.93
2018-01-04T17:27:55.961Z,1.50
2018-01-04T17:30:25.186Z,1.50
2018-01-04T17:32:55.152Z,2.17
2018-01-04T17:35:24.343Z,1.53
2018-01-04T17:37:54.468Z,1.63
2018-01-04T17:40:23.732Z,1.13
2018-01-04T17:42:52.992Z,1.30
2018-01-04T17:45:22.228Z,1.47
2018-01-04T17:47:51.395Z,1.07
2018-01-04T17:50:20.628Z,1.40
2018-01-04T17:52:50.489Z,1.30
2018-01-04T17:55:19.679Z,1.20
2018-01-04T17:57:48.886Z,2.20
2018-01-04T18:00:18.074Z,1.90
2018-01-04T18:02:47.244Z,3.23
2018-01-04T18:05:16.425Z,2.13
2018-01-04T18:07:45.604Z,1.40
2018-01-04T18:10:14.999Z,1.20
2018-01-04T18:12:44.903Z,1.13
2018-01-04T18:15:14.088Z,1.67
2018-01-04T18:17:43.209Z,1.43
2018-01-04T18:20:13.342Z,1.50
2018-01-04T18:22:42.507Z,1.10
2018-01-04T18:25:12.138Z,1.43
2018-01-04T18:27:41.331Z,1.27
2018-01-04T18:30:12.660Z,1.30
2018-01-04T18:32:42.600Z,1.20
2018-01-04T18:35:13.272Z,1.30
2018-01-04T18:37:42.433Z,0.90
2018-01-04T18:40:11.612Z,1.37
2018-01-04T18:42:41.905Z,1.23
2018-01-04T18:45:12.027Z,1.50
2018-01-04T18:47:41.197Z,1.40
2018-01-04T18:50:11.383Z,1.43
2018-01-04T18:52:40.617Z,1.37
2018-01-04T18:55:09.903Z,1.10
2018-01-04T18:57:39.144Z,1.33
2018-01-04T19:00:09.113Z,1.30
2018-01-04T19:02:39.052Z,1.50
2018-01-04T19:05:08.271Z,1.47
2018-01-04T19:07:37.502Z,1.23
2018-01-04T19:10:07.588Z,1.30
2018-01-04T19:12:37.778Z,1.40
2018-01-04T19:15:07.272Z,1.27
2018-01-04T19:17:36.494Z,1.20
2018-01-04T19:20:06.248Z,1.30
2018-01-04T19:22:35.446Z,1.30
2018-01-04T19:25:04.619Z,1.27
2018-01-04T19:27:33.804Z,1.20
2018-01-04T19:30:02.963Z,1.20
2018-01-04T19:32:32.267Z,1.10
2018-01-04T19:35:02.302Z,1.10
2018-01-04T19:37:32.152Z,1.00
2018-01-04T19:40:02.270Z,1.10
2018-01-04T19:42:31.536Z,1.30
2018-01-04T19:45:00.780Z,1.10
2018-01-04T19:47:30.008Z,1.27
2018-01-04T19:49:59.705Z,1.10
2018-01-04T19:52:29.798Z,1.30
2018-01-04T19:55:03.179Z,0.90
2018-01-04T19:57:32.360Z,1.07
2018-01-04T20:00:01.982Z,0.93
2018-01-04T20:02:31.268Z,1.20
2018-01-04T20:05:01.394Z,0.90
2018-01-04T20:07:30.605Z,1.00
2018-01-04T20:09:59.998Z,1.23
2018-01-04T20:12:30.004Z,1.23
2018-01-04T20:14:59.530Z,0.90
2018-01-04T20:17:28.769Z,0.90
2018-01-04T20:19:57.972Z,1.07
2018-01-04T20:22:27.682Z,0.97
2018-01-04T20:24:56.887Z,1.10
2018-01-04T20:27:27.083Z,1.07
2018-01-04T20:29:56.289Z,1.00
2018-01-04T20:32:26.073Z,1.00
2018-01-04T20:34:55.274Z,1.10
2018-01-04T20:37:24.504Z,1.20
2018-01-04T20:39:53.716Z,1.03
2018-01-04T20:42:22.939Z,0.90
2018-01-04T20:44:52.105Z,1.07
2018-01-04T20:47:21.823Z,1.33
2018-01-04T20:49:51.033Z,1.10
2018-01-04T20:52:20.320Z,0.83
2018-01-04T20:54:49.516Z,1.30
2018-01-04T20:57:19.648Z,1.30
2018-01-04T20:59:48.916Z,1.20
2018-01-04T21:02:18.166Z,0.90
2018-01-04T21:04:47.310Z,1.20
2018-01-04T21:07:16.527Z,1.30
2018-01-04T21:09:45.828Z,1.33
2018-01-04T21:12:15.039Z,0.93
2018-01-04T21:14:44.296Z,0.80
2018-01-04T21:17:14.434Z,0.80
2018-01-04T21:19:43.659Z,0.70
2018-01-04T21:22:12.878Z,0.80
2018-01-04T21:24:42.117Z,0.83
2018-01-04T21:27:11.331Z,1.10
2018-01-04T21:29:41.462Z,0.97
2018-01-04T21:32:10.666Z,0.80
2018-01-04T21:34:39.892Z,0.90
2018-01-04T21:37:09.440Z,0.93
2018-01-04T21:39:38.680Z,1.33
2018-01-04T21:42:07.893Z,0.80
2018-01-04T21:44:37.115Z,1.00
2018-01-04T21:47:06.356Z,1.10
2018-01-04T21:49:35.584Z,0.80
2018-01-04T21:52:04.809Z,1.40
2018-01-04T21:54:34.048Z,1.33
2018-01-04T21:57:03.468Z,1.53
2018-01-04T21:59:33.408Z,2.10
2018-01-04T22:02:02.636Z,1.70
2018-01-04T22:04:31.872Z,2.00
2018-01-04T22:07:01.076Z,2.53
2018-01-04T22:09:30.313Z,3.00
2018-01-04T22:11:59.544Z,2.60
2018-01-04T22:14:28.896Z,2.80
2018-01-04T22:16:58.060Z,3.07
2018-01-04T22:19:27.283Z,2.17
2018-01-04T22:21:56.486Z,3.53
2018-01-04T22:24:25.709Z,3.87
2018-01-04T22:26:54.910Z,3.50
2018-01-04T22:29:24.154Z,4.87
2018-01-04T22:31:53.384Z,2.43
2018-01-04T22:34:22.590Z,2.87
2018-01-04T22:36:51.845Z,4.10
2018-01-04T22:39:21.911Z,3.43
2018-01-04T22:41:51.252Z,3.67
2018-01-04T22:44:20.463Z,3.23
2018-01-04T22:46:49.704Z,3.67
2018-01-04T22:49:18.916Z,2.87
2018-01-04T22:51:48.163Z,3.20
2018-01-04T22:54:17.386Z,2.97
2018-01-04T22:56:46.677Z,3.27
2018-01-04T22:59:15.595Z,2.90
2018-01-04T23:01:44.322Z,2.77
2018-01-04T23:04:11.906Z,3.20
2018-01-04T23:06:40.284Z,2.87
2018-01-04T23:09:08.608Z,2.67
2018-01-04T23:11:36.959Z,3.17
2018-01-04T23:14:05.304Z,3.30
2018-01-04T23:16:33.653Z,3.17
2018-01-04T23:19:01.989Z,4.03
2018-01-04T23:21:30.339Z,3.33
2018-01-04T23:23:58.663Z,3.70
2018-01-04T23:26:27.004Z,3.47
2018-01-04T23:28:55.343Z,4.13
2018-01-04T23:31:25.457Z,3.07
2018-01-04T23:33:53.435Z,4.07
2018-01-04T23:36:21.788Z,4.17
2018-01-04T23:38:50.102Z,3.90
2018-01-04T23:41:19.386Z,3.50
2018-01-04T23:43:46.955Z,3.57
2018-01-04T23:46:14.931Z,3.63
2018-01-04T23:48:43.822Z,3.67
2018-01-04T23:51:12.148Z,3.80
2018-01-04T23:53:40.103Z,3.80
2018-01-04T23:56:08.420Z,5.03
2018-01-04T23:58:36.736Z,2.90
